Roberts, MT (59070)

9:35 PM MDT on June 29, 2015 (GMT -0600)
Clear Creek Rd, Roberts, MT | | Change Station
CLOSE
Current Station
Personal Weather Station
Location: Roberts, MT
Elevation: 4455 ft
Nearby Weather Stations

Elev 4455 ft 45.38 °N, 109.14 °W | Updated 38 seconds ago

Rain
Rain
67.8 °F
Feels Like 67.8 °F
N
2.9
Wind Variable Wind from West
Gusts 4.9 mph

Today
High -- | Low -- °F
--% Chance of Precip.
Yesterday
High -- | Low -- °F
Precip. -- in
5:31 AM 9:09 PM
Waxing Gibbous, 95% visible
Pressure 30.10 in
Visibility 10.0 miles
Clouds Scattered Clouds 9500 ft
Mostly Cloudy 12000 ft
Overcast 17000 ft
Dew Point 64 °F
Humidity 87%
Rainfall in
Snow Depth Not available.
UV 0.0 out of 12
Pollen 6.10 out of 12
Air Quality Not available.
Flu Activity Sporadic
SPECI KBIL 300312Z 31028G38KT 10SM SCT095 BKN120 OVC170 24/14 A3010 RMK AO2 PK WND 30038/0257 RAE0254 TSE06 VIRGA E CB SHRA DSNT S-N P0000 T02440139

More Conditions Fewer Conditions

Pressure 30.10 in
Visibility 10.0 miles
Clouds Scattered Clouds 9500 ft
Mostly Cloudy 12000 ft
Overcast 17000 ft
Dew Point 64 °F
Humidity 87%
Rainfall in
Snow Depth Not available.
UV 0.0 out of 12
Pollen 6.10 out of 12
Air Quality Not available.
Flu Activity Sporadic
SPECI KBIL 300312Z 31028G38KT 10SM SCT095 BKN120 OVC170 24/14 A3010 RMK AO2 PK WND 30038/0257 RAE0254 TSE06 VIRGA E CB SHRA DSNT S-N P0000 T02440139

More Conditions Fewer Conditions

10-Day Weather Forecast

×

Almanac

Astronomy

Jun. 29, 2015 Rise Set
Actual Time
Civil Twilight
Nautical Twilight
Astronomical Twilight
Moon
Length of Visible Light
Length of Day
Tomorrow will be .
, % of the Moon is Illuminated

Today's Extremes

State Highs State Lows

Community

WunderPhotos

Upload Photos

1,833,955 photos uploaded!

WunderBlogs® & News

Nearby

Air Quality

  Air Quality AQ Index Pollutant
Not available.

Snow Depth

Station Depth Elevation

Earthquake Activity

City Distance Mag. Time & Date
Minimum magnitude displayed is 2.5.

Coastal Water Temperatures

Place Temperature

Stations

Nearby Weather Stations

Station Location Temp. Windchill Dew Point Humidity Wind Precip. Elev Updated Type